createdAt,value
2023-04-26T00:02:19.400Z,99.90
2023-04-26T00:04:47.629Z,99.90
2023-04-26T00:07:15.896Z,99.90
2023-04-26T00:09:44.450Z,99.90
2023-04-26T00:12:12.004Z,99.90
2023-04-26T00:14:38.972Z,99.90
2023-04-26T00:17:05.732Z,99.90
2023-04-26T00:19:32.506Z,99.90
2023-04-26T00:21:59.279Z,99.90
2023-04-26T00:24:26.110Z,99.90
2023-04-26T00:26:56.030Z,99.90
2023-04-26T00:29:22.745Z,99.90
2023-04-26T00:31:49.576Z,99.90
2023-04-26T00:34:16.830Z,99.90
2023-04-26T00:36:43.600Z,99.90
2023-04-26T00:39:10.477Z,99.90
2023-04-26T00:41:37.318Z,99.90
2023-04-26T00:44:04.067Z,99.90
2023-04-26T00:46:31.234Z,99.90
2023-04-26T00:48:57.963Z,99.90
2023-04-26T00:51:24.766Z,99.90
2023-04-26T00:53:51.555Z,99.90
2023-04-26T00:56:18.370Z,99.90
2023-04-26T00:58:46.398Z,99.90
2023-04-26T01:01:13.564Z,99.90
2023-04-26T01:03:40.716Z,99.90
2023-04-26T01:06:07.895Z,99.90
2023-04-26T01:08:35.419Z,99.90
2023-04-26T01:11:03.684Z,99.90
2023-04-26T01:13:32.163Z,99.90
2023-04-26T01:15:58.907Z,99.90
2023-04-26T01:18:25.973Z,99.90
2023-04-26T01:20:53.596Z,99.90
2023-04-26T01:23:20.506Z,99.90
2023-04-26T01:25:47.279Z,99.90
2023-04-26T01:28:14.087Z,99.90
2023-04-26T01:30:51.227Z,99.90
2023-04-26T01:33:18.308Z,99.90
2023-04-26T01:35:45.137Z,99.90
2023-04-26T01:38:12.241Z,99.90
2023-04-26T01:40:38.955Z,99.90
2023-04-26T01:43:05.620Z,99.90
2023-04-26T01:45:32.286Z,99.90
2023-04-26T01:47:59.512Z,99.90
2023-04-26T01:50:26.333Z,99.90
2023-04-26T01:52:53.043Z,99.90
2023-04-26T01:55:20.066Z,99.90
2023-04-26T01:57:46.818Z,99.90
2023-04-26T02:00:14.494Z,99.90
2023-04-26T02:02:41.378Z,99.90
2023-04-26T02:05:09.685Z,99.90
2023-04-26T02:07:36.578Z,99.90
2023-04-26T02:10:03.552Z,99.90
2023-04-26T02:12:30.415Z,99.90
2023-04-26T02:14:57.185Z,99.90
2023-04-26T02:17:26.472Z,99.90
2023-04-26T02:19:53.617Z,99.90
2023-04-26T02:22:21.809Z,99.90
2023-04-26T02:24:49.773Z,99.90
2023-04-26T02:27:16.502Z,99.90
2023-04-26T02:29:44.741Z,99.90
2023-04-26T02:32:12.356Z,99.90
2023-04-26T02:34:39.236Z,99.90
2023-04-26T02:37:05.999Z,99.90
2023-04-26T02:39:32.812Z,99.90
2023-04-26T02:41:59.698Z,99.90
2023-04-26T02:44:29.077Z,99.90
2023-04-26T02:46:55.989Z,99.90
2023-04-26T02:49:22.774Z,99.90
2023-04-26T02:51:49.522Z,99.90
2023-04-26T02:54:16.876Z,99.90
2023-04-26T02:56:43.595Z,99.90
2023-04-26T02:59:11.806Z,99.90
2023-04-26T03:01:38.642Z,99.90
2023-04-26T03:04:05.661Z,99.90
2023-04-26T03:06:33.469Z,99.90
2023-04-26T03:09:00.201Z,99.90
2023-04-26T03:11:27.178Z,99.90
2023-04-26T03:13:54.041Z,99.90
2023-04-26T03:16:24.019Z,99.90
2023-04-26T03:18:51.133Z,99.90
2023-04-26T03:21:18.144Z,99.90
2023-04-26T03:23:44.859Z,99.90
2023-04-26T03:26:11.557Z,99.90
2023-04-26T03:28:38.321Z,99.90
2023-04-26T03:31:05.146Z,99.90
2023-04-26T03:33:32.080Z,99.90
2023-04-26T03:35:58.864Z,99.90
2023-04-26T03:38:26.173Z,99.90
2023-04-26T03:40:53.023Z,99.90
2023-04-26T03:43:19.778Z,99.90
2023-04-26T03:45:49.877Z,99.90
2023-04-26T03:48:17.284Z,99.90
2023-04-26T03:50:45.180Z,99.90
2023-04-26T03:53:12.021Z,99.90
2023-04-26T03:55:38.758Z,99.90
2023-04-26T03:58:08.163Z,99.90
2023-04-26T04:00:37.274Z,99.90
2023-04-26T04:03:04.272Z,99.90
2023-04-26T04:05:31.128Z,99.90
2023-04-26T04:07:57.921Z,99.90
2023-04-26T04:10:24.688Z,99.90
2023-04-26T04:12:51.688Z,99.90
2023-04-26T04:15:18.857Z,99.90
2023-04-26T04:17:45.936Z,99.90
2023-04-26T04:20:12.907Z,99.90
2023-04-26T04:22:39.831Z,99.90
2023-04-26T04:25:10.656Z,99.90
2023-04-26T04:27:38.006Z,99.90
2023-04-26T04:30:07.627Z,99.90
2023-04-26T04:32:34.570Z,99.90
2023-04-26T04:35:01.617Z,99.90
2023-04-26T04:37:28.925Z,99.90
2023-04-26T04:39:55.823Z,99.90
2023-04-26T04:42:22.635Z,99.90
2023-04-26T04:44:50.201Z,99.90
2023-04-26T04:47:17.848Z,99.90
2023-04-26T04:49:44.604Z,99.90
2023-04-26T04:52:11.550Z,99.90
2023-04-26T04:54:38.379Z,99.90
2023-04-26T04:57:05.535Z,99.90
2023-04-26T04:59:33.332Z,99.90
2023-04-26T05:02:00.151Z,99.90
2023-04-26T05:04:27.640Z,99.90
2023-04-26T05:06:54.991Z,99.90
2023-04-26T05:09:21.781Z,99.90
2023-04-26T05:11:48.569Z,99.90
2023-04-26T05:14:15.523Z,99.90
2023-04-26T05:16:42.401Z,99.90
2023-04-26T05:19:09.801Z,99.90
2023-04-26T05:21:37.012Z,99.90
2023-04-26T05:24:04.335Z,99.90
2023-04-26T05:26:31.164Z,99.90
2023-04-26T05:28:57.974Z,99.90
2023-04-26T05:31:25.034Z,99.90
2023-04-26T05:33:52.029Z,99.90
2023-04-26T05:36:19.570Z,99.90
2023-04-26T05:38:46.391Z,99.90
2023-04-26T05:41:13.313Z,99.90
2023-04-26T05:43:40.714Z,99.90
2023-04-26T05:46:07.498Z,99.90
2023-04-26T05:48:34.316Z,99.90
2023-04-26T05:51:01.293Z,99.90
2023-04-26T05:53:28.231Z,99.90
2023-04-26T05:55:55.191Z,99.90
2023-04-26T05:58:22.074Z,99.90
2023-04-26T06:00:49.014Z,99.90
2023-04-26T06:03:16.472Z,99.90
2023-04-26T06:05:43.630Z,99.90
2023-04-26T06:08:10.482Z,99.90
2023-04-26T06:10:40.105Z,99.90
2023-04-26T06:13:07.079Z,99.90
2023-04-26T06:15:34.297Z,99.90
2023-04-26T06:18:01.375Z,99.90
2023-04-26T06:20:28.208Z,99.90
2023-04-26T06:22:55.245Z,99.90
2023-04-26T06:25:22.441Z,99.90
2023-04-26T06:27:49.525Z,99.90
2023-04-26T06:30:16.364Z,99.90
2023-04-26T06:32:43.373Z,99.90
2023-04-26T06:35:10.602Z,99.90
2023-04-26T06:37:37.536Z,99.90
2023-04-26T06:40:04.942Z,99.90
2023-04-26T06:42:32.200Z,99.90
2023-04-26T06:44:59.054Z,99.90
2023-04-26T06:47:26.013Z,99.90
2023-04-26T06:49:52.845Z,99.90
2023-04-26T06:52:21.535Z,99.90
2023-04-26T06:54:56.673Z,99.90
2023-04-26T06:57:24.657Z,99.90
2023-04-26T06:59:51.567Z,99.90
2023-04-26T07:02:23.154Z,99.90
2023-04-26T07:04:50.445Z,99.90
2023-04-26T07:07:17.755Z,99.90
2023-04-26T07:09:44.627Z,99.90
2023-04-26T07:12:11.680Z,99.90
2023-04-26T07:14:43.465Z,99.90
2023-04-26T07:17:10.752Z,99.90
2023-04-26T07:19:37.702Z,99.90
2023-04-26T07:22:05.156Z,99.90
2023-04-26T07:24:32.203Z,99.90
2023-04-26T07:26:59.124Z,99.90
2023-04-26T07:29:26.357Z,99.90
2023-04-26T07:31:53.211Z,99.90
2023-04-26T07:34:20.136Z,99.90
2023-04-26T07:36:47.894Z,99.90
2023-04-26T07:39:15.988Z,99.90
2023-04-26T07:41:44.124Z,99.90
2023-04-26T07:44:11.560Z,99.90
2023-04-26T07:46:38.491Z,99.90
2023-04-26T07:49:05.943Z,99.90
2023-04-26T07:51:32.858Z,99.90
2023-04-26T07:53:59.865Z,99.90
2023-04-26T07:56:29.276Z,99.90
2023-04-26T07:58:59.278Z,99.90
2023-04-26T08:01:26.223Z,99.90
2023-04-26T08:03:53.873Z,99.90
2023-04-26T08:06:21.997Z,99.90
2023-04-26T08:08:51.150Z,99.90
2023-04-26T08:11:18.519Z,99.90
2023-04-26T08:13:45.732Z,99.90
2023-04-26T08:16:12.832Z,99.90
2023-04-26T08:18:39.822Z,99.90
2023-04-26T08:21:06.908Z,99.90
2023-04-26T08:23:35.930Z,99.90
2023-04-26T08:26:03.026Z,99.90
2023-04-26T08:28:30.060Z,99.90
2023-04-26T08:30:56.917Z,99.90
2023-04-26T08:33:23.771Z,99.90
2023-04-26T08:35:50.745Z,99.90
2023-04-26T08:38:17.720Z,99.90
2023-04-26T08:40:44.606Z,99.90
2023-04-26T08:43:12.244Z,99.90
2023-04-26T08:45:39.842Z,99.90
2023-04-26T08:48:10.557Z,99.90
2023-04-26T08:50:37.478Z,99.90
2023-04-26T08:53:04.321Z,99.90
2023-04-26T08:55:31.188Z,99.90
2023-04-26T08:57:58.885Z,99.90
2023-04-26T09:00:26.034Z,99.90
2023-04-26T09:02:53.568Z,99.90
2023-04-26T09:05:24.304Z,99.90
2023-04-26T09:07:51.595Z,99.90
2023-04-26T09:10:22.430Z,99.90
2023-04-26T09:12:55.643Z,99.90
2023-04-26T09:15:22.983Z,99.90
2023-04-26T09:17:51.823Z,99.90
2023-04-26T09:20:28.903Z,99.90
2023-04-26T09:23:06.157Z,99.90
2023-04-26T09:25:33.093Z,99.90
2023-04-26T09:28:00.130Z,99.90
2023-04-26T09:30:27.174Z,99.90
2023-04-26T09:32:55.182Z,99.90
2023-04-26T09:35:25.952Z,99.90
2023-04-26T09:38:11.804Z,99.90
2023-04-26T09:40:43.496Z,99.90
2023-04-26T09:43:12.041Z,99.90
2023-04-26T09:45:45.020Z,99.90
2023-04-26T09:48:22.567Z,99.90
2023-04-26T09:50:50.490Z,99.90
2023-04-26T09:53:37.539Z,99.90
2023-04-26T09:56:22.587Z,99.90
2023-04-26T09:58:53.489Z,99.90
2023-04-26T10:01:20.589Z,99.90
2023-04-26T10:03:47.712Z,99.90
2023-04-26T10:06:14.725Z,99.90
2023-04-26T10:08:41.483Z,99.10
2023-04-26T10:11:09.808Z,99.90
2023-04-26T10:13:36.702Z,98.80
2023-04-26T10:16:03.949Z,98.90
2023-04-26T10:18:31.590Z,97.90
2023-04-26T10:21:05.107Z,97.10
2023-04-26T10:23:32.074Z,96.70
2023-04-26T10:25:58.853Z,96.80
2023-04-26T10:28:41.757Z,97.10
2023-04-26T10:31:08.635Z,96.40
2023-04-26T10:33:35.594Z,95.90
2023-04-26T10:36:21.216Z,96.20
2023-04-26T10:39:06.802Z,96.00
2023-04-26T10:41:34.548Z,95.70
2023-04-26T10:44:21.824Z,95.30
2023-04-26T10:46:54.507Z,95.30
2023-04-26T10:49:25.742Z,94.80
2023-04-26T10:52:10.121Z,94.90
2023-04-26T10:54:46.417Z,94.40
2023-04-26T10:57:13.313Z,94.00
2023-04-26T10:59:51.182Z,93.10
2023-04-26T11:02:41.050Z,93.50
2023-04-26T11:05:09.032Z,92.90
2023-04-26T11:07:36.109Z,93.00
2023-04-26T11:10:03.152Z,93.40
2023-04-26T11:12:29.895Z,93.40
2023-04-26T11:14:56.917Z,92.50
2023-04-26T11:17:23.716Z,91.10
2023-04-26T11:19:50.489Z,90.90
2023-04-26T11:22:21.996Z,92.20
2023-04-26T11:24:48.834Z,92.40
2023-04-26T11:27:15.631Z,91.00
2023-04-26T11:29:42.437Z,90.40
2023-04-26T11:32:10.953Z,90.20
2023-04-26T11:34:41.771Z,90.50
2023-04-26T11:37:08.536Z,89.50
2023-04-26T11:39:35.773Z,89.90
2023-04-26T11:42:09.367Z,90.30
2023-04-26T11:44:36.590Z,90.00
2023-04-26T11:47:04.426Z,90.20
2023-04-26T11:49:31.863Z,87.90
2023-04-26T11:51:58.760Z,89.00
2023-04-26T11:54:32.379Z,87.20
2023-04-26T11:56:59.296Z,87.40
2023-04-26T11:59:26.728Z,87.50
2023-04-26T12:01:53.668Z,88.30
2023-04-26T12:04:20.938Z,87.70
2023-04-26T12:06:48.123Z,87.60
2023-04-26T12:09:15.406Z,87.00
2023-04-26T12:11:42.290Z,87.40
2023-04-26T12:14:10.152Z,87.10
2023-04-26T12:16:37.532Z,87.60
2023-04-26T12:19:05.694Z,87.20
2023-04-26T12:21:40.931Z,87.40
2023-04-26T12:24:07.944Z,86.60
2023-04-26T12:26:44.988Z,88.10
2023-04-26T12:29:11.759Z,87.70
2023-04-26T12:31:38.646Z,89.40
2023-04-26T12:34:05.773Z,87.30
2023-04-26T12:36:32.623Z,87.90
2023-04-26T12:39:00.949Z,88.50
2023-04-26T12:41:27.701Z,87.20
2023-04-26T12:43:54.705Z,86.70
2023-04-26T12:46:21.614Z,87.30
2023-04-26T12:48:48.342Z,86.50
2023-04-26T12:51:15.123Z,87.90
2023-04-26T12:53:41.834Z,86.80
2023-04-26T12:56:08.698Z,86.80
2023-04-26T12:58:35.806Z,86.00
2023-04-26T13:01:02.653Z,85.40
2023-04-26T13:03:29.602Z,86.30
2023-04-26T13:05:56.471Z,86.50
2023-04-26T13:08:24.458Z,85.60
2023-04-26T13:10:51.354Z,85.70
2023-04-26T13:13:19.164Z,85.90
2023-04-26T13:15:45.969Z,83.70
2023-04-26T13:18:13.814Z,84.20
2023-04-26T13:20:40.731Z,86.10
2023-04-26T13:23:07.884Z,85.00
2023-04-26T13:25:34.661Z,85.50
2023-04-26T13:28:02.989Z,85.90
2023-04-26T13:30:29.810Z,86.50
2023-04-26T13:32:58.191Z,86.60
2023-04-26T13:35:26.788Z,85.90
2023-04-26T13:37:53.458Z,86.90
2023-04-26T13:40:22.136Z,86.60
2023-04-26T13:42:48.887Z,86.70
2023-04-26T13:45:16.994Z,86.20
2023-04-26T13:47:44.896Z,85.60
2023-04-26T13:50:11.642Z,86.50
2023-04-26T13:52:38.316Z,86.70
2023-04-26T13:55:05.119Z,86.70
2023-04-26T13:57:31.826Z,86.40
2023-04-26T13:59:58.544Z,83.00
2023-04-26T14:02:25.491Z,84.40
2023-04-26T14:04:52.900Z,84.20
2023-04-26T14:07:19.785Z,83.60
2023-04-26T14:09:46.469Z,82.60
2023-04-26T14:12:13.136Z,82.80
2023-04-26T14:14:40.094Z,84.00
2023-04-26T14:17:07.239Z,84.30
2023-04-26T14:19:33.945Z,83.20
2023-04-26T14:22:00.797Z,83.50
2023-04-26T14:24:27.433Z,83.70
2023-04-26T14:26:54.121Z,81.90
2023-04-26T14:29:21.259Z,82.90
2023-04-26T14:31:47.993Z,82.70
2023-04-26T14:34:14.722Z,80.50
2023-04-26T14:36:41.446Z,81.20
2023-04-26T14:39:08.109Z,80.70
2023-04-26T14:41:34.868Z,80.60
2023-04-26T14:44:01.678Z,80.40
2023-04-26T14:46:28.532Z,79.20
2023-04-26T14:48:55.499Z,80.50
2023-04-26T14:51:22.231Z,81.40
2023-04-26T14:53:48.949Z,81.20
2023-04-26T14:56:15.779Z,80.50
2023-04-26T14:58:42.600Z,82.70
2023-04-26T15:01:09.413Z,83.40
2023-04-26T15:03:36.500Z,84.50
2023-04-26T15:06:03.379Z,83.10
2023-04-26T15:08:30.069Z,82.90
2023-04-26T15:10:56.725Z,84.30
2023-04-26T15:13:23.544Z,84.10
2023-04-26T15:15:50.258Z,83.20
2023-04-26T15:18:17.150Z,84.20
2023-04-26T15:20:43.868Z,85.30
2023-04-26T15:23:10.762Z,84.40
2023-04-26T15:25:37.488Z,85.50
2023-04-26T15:28:04.348Z,85.90
2023-04-26T15:30:31.178Z,86.10
2023-04-26T15:32:58.079Z,88.40
2023-04-26T15:35:25.225Z,87.30
2023-04-26T15:37:53.959Z,87.60
2023-04-26T15:40:24.707Z,87.30
2023-04-26T15:42:52.157Z,89.20
2023-04-26T15:45:19.352Z,87.40
2023-04-26T15:47:46.365Z,90.00
2023-04-26T15:50:13.138Z,90.00
2023-04-26T15:52:40.759Z,89.30
2023-04-26T15:55:07.569Z,90.30
2023-04-26T15:57:34.791Z,89.20
2023-04-26T16:00:01.807Z,89.70
2023-04-26T16:02:28.786Z,89.00
2023-04-26T16:04:56.394Z,88.80
2023-04-26T16:07:23.615Z,88.90
2023-04-26T16:09:50.521Z,89.90
2023-04-26T16:12:17.251Z,89.80
2023-04-26T16:14:43.975Z,90.10
2023-04-26T16:17:10.782Z,90.20
2023-04-26T16:19:37.568Z,90.40
2023-04-26T16:22:04.315Z,90.30
2023-04-26T16:24:31.239Z,90.40
2023-04-26T16:26:58.060Z,90.10
2023-04-26T16:29:25.293Z,90.10
2023-04-26T16:31:52.669Z,90.40
2023-04-26T16:34:20.020Z,90.30
2023-04-26T16:36:46.839Z,90.80
2023-04-26T16:39:15.762Z,90.70
2023-04-26T16:41:42.877Z,90.70
2023-04-26T16:44:09.559Z,90.50
2023-04-26T16:46:36.396Z,90.70
2023-04-26T16:49:09.602Z,90.60
2023-04-26T16:51:37.199Z,90.50
2023-04-26T16:54:04.115Z,90.60
2023-04-26T16:56:30.798Z,91.50
2023-04-26T16:58:57.545Z,91.10
2023-04-26T17:01:24.284Z,91.60
2023-04-26T17:03:51.989Z,91.40
2023-04-26T17:06:18.967Z,91.30
2023-04-26T17:08:45.899Z,91.40
2023-04-26T17:11:16.244Z,91.70
2023-04-26T17:13:43.081Z,91.10
2023-04-26T17:16:09.832Z,91.20
2023-04-26T17:18:37.200Z,90.80
2023-04-26T17:21:07.171Z,91.20
2023-04-26T17:23:33.972Z,90.80
2023-04-26T17:26:01.028Z,91.10
2023-04-26T17:28:27.744Z,91.70
2023-04-26T17:30:54.417Z,92.60
2023-04-26T17:33:21.346Z,93.20
2023-04-26T17:35:48.224Z,93.90
2023-04-26T17:38:15.089Z,94.20
2023-04-26T17:40:41.884Z,94.60
2023-04-26T17:43:08.632Z,95.00
2023-04-26T17:45:35.347Z,95.80
2023-04-26T17:48:02.178Z,95.60
2023-04-26T17:50:30.346Z,95.80
2023-04-26T17:52:57.131Z,96.40
2023-04-26T17:55:23.958Z,96.60
2023-04-26T17:57:50.734Z,96.90
2023-04-26T18:00:17.710Z,97.30
2023-04-26T18:02:44.624Z,97.20
2023-04-26T18:05:11.826Z,97.20
2023-04-26T18:07:38.609Z,97.50
2023-04-26T18:10:06.554Z,97.50
2023-04-26T18:12:33.276Z,98.00
2023-04-26T18:14:59.962Z,98.30
2023-04-26T18:17:26.986Z,98.30
2023-04-26T18:19:53.783Z,98.40
2023-04-26T18:22:20.519Z,98.60
2023-04-26T18:24:47.302Z,98.80
2023-04-26T18:27:14.361Z,98.70
2023-04-26T18:29:41.585Z,98.90
2023-04-26T18:32:08.777Z,99.30
2023-04-26T18:34:35.554Z,99.40
2023-04-26T18:37:02.321Z,99.60
2023-04-26T18:39:29.009Z,99.90
2023-04-26T18:41:55.905Z,99.70
2023-04-26T18:44:22.608Z,99.90
2023-04-26T18:46:49.366Z,99.90
2023-04-26T18:49:16.340Z,99.90
2023-04-26T18:51:43.651Z,99.90
2023-04-26T18:54:10.334Z,99.90
2023-04-26T18:56:37.556Z,99.90
2023-04-26T18:59:04.374Z,99.90
2023-04-26T19:01:31.202Z,99.90
2023-04-26T19:03:58.269Z,99.90
2023-04-26T19:06:25.151Z,99.90
2023-04-26T19:08:52.012Z,99.90
2023-04-26T19:11:18.782Z,99.90
2023-04-26T19:13:45.584Z,99.90
2023-04-26T19:16:12.409Z,99.90
2023-04-26T19:18:45.125Z,99.90
2023-04-26T19:21:11.855Z,99.90
2023-04-26T19:23:38.666Z,99.90
2023-04-26T19:26:06.503Z,99.90
2023-04-26T19:28:33.329Z,99.90
2023-04-26T19:31:00.262Z,99.90
2023-04-26T19:33:27.275Z,99.90
2023-04-26T19:35:54.128Z,99.90
2023-04-26T19:38:20.878Z,99.90
2023-04-26T19:40:47.614Z,99.90
2023-04-26T19:43:14.303Z,99.90
2023-04-26T19:45:41.299Z,99.90
2023-04-26T19:48:11.116Z,99.90
2023-04-26T19:50:38.750Z,99.90
2023-04-26T19:53:06.101Z,99.90
2023-04-26T19:55:32.891Z,99.90
2023-04-26T19:57:59.689Z,99.90
2023-04-26T20:00:26.486Z,99.90
2023-04-26T20:02:53.383Z,99.90
2023-04-26T20:05:20.538Z,99.90
2023-04-26T20:07:47.297Z,99.90
2023-04-26T20:10:14.740Z,99.90
2023-04-26T20:12:47.730Z,99.90
2023-04-26T20:15:15.879Z,99.90
2023-04-26T20:17:45.486Z,99.90
2023-04-26T20:20:14.988Z,99.90
2023-04-26T20:22:42.494Z,99.90
2023-04-26T20:25:10.026Z,99.90
2023-04-26T20:27:37.458Z,99.90
2023-04-26T20:30:08.408Z,99.90
2023-04-26T20:32:35.920Z,99.90
2023-04-26T20:35:03.527Z,99.90
2023-04-26T20:37:33.889Z,99.90
2023-04-26T20:40:00.623Z,99.90
2023-04-26T20:42:27.725Z,99.90
2023-04-26T20:44:54.612Z,99.90
2023-04-26T20:47:21.601Z,99.90
2023-04-26T20:49:48.277Z,99.90
2023-04-26T20:52:14.965Z,99.90
2023-04-26T20:54:41.559Z,99.90
2023-04-26T20:57:08.294Z,99.90
2023-04-26T20:59:35.042Z,99.90
2023-04-26T21:02:01.835Z,99.90
2023-04-26T21:04:28.700Z,99.90
2023-04-26T21:06:55.840Z,99.90
2023-04-26T21:09:22.533Z,99.90
2023-04-26T21:11:49.151Z,99.90
2023-04-26T21:14:15.847Z,99.90
2023-04-26T21:16:42.479Z,99.90
2023-04-26T21:19:09.787Z,99.90
2023-04-26T21:21:36.698Z,99.90
2023-04-26T21:24:04.051Z,99.90
2023-04-26T21:26:30.949Z,99.90
2023-04-26T21:28:57.944Z,99.90
2023-04-26T21:31:24.616Z,99.90
2023-04-26T21:33:51.398Z,99.90
2023-04-26T21:36:18.107Z,99.90
2023-04-26T21:38:44.786Z,99.90
2023-04-26T21:41:11.435Z,99.90
2023-04-26T21:43:38.201Z,99.90
2023-04-26T21:46:05.002Z,99.90
2023-04-26T21:48:31.657Z,99.90
2023-04-26T21:50:58.414Z,99.90
2023-04-26T21:53:25.122Z,99.90
2023-04-26T21:55:52.671Z,99.90
2023-04-26T21:58:20.084Z,99.90
2023-04-26T22:00:46.893Z,99.90
2023-04-26T22:03:13.914Z,99.90
2023-04-26T22:05:40.932Z,99.90
2023-04-26T22:08:07.539Z,99.90
2023-04-26T22:10:34.388Z,99.90
2023-04-26T22:13:01.208Z,99.90
2023-04-26T22:15:28.165Z,99.90
2023-04-26T22:17:54.793Z,99.90
2023-04-26T22:20:21.699Z,99.90
2023-04-26T22:22:48.495Z,99.90
2023-04-26T22:25:15.208Z,99.90
2023-04-26T22:27:41.912Z,99.90
2023-04-26T22:30:22.934Z,99.90
2023-04-26T22:32:53.885Z,99.90
2023-04-26T22:35:20.882Z,99.90
2023-04-26T22:37:47.660Z,99.90
2023-04-26T22:40:14.638Z,99.90
2023-04-26T22:42:41.391Z,99.90
2023-04-26T22:45:08.254Z,99.90
2023-04-26T22:47:34.923Z,99.90
2023-04-26T22:50:01.613Z,99.90
2023-04-26T22:52:31.908Z,99.90
2023-04-26T22:54:59.849Z,99.90
2023-04-26T22:57:26.911Z,99.90
2023-04-26T22:59:53.595Z,99.90
2023-04-26T23:02:20.931Z,99.90
2023-04-26T23:04:47.813Z,99.90
2023-04-26T23:07:14.536Z,99.90
2023-04-26T23:09:41.277Z,99.90
2023-04-26T23:12:08.186Z,99.90
2023-04-26T23:14:35.214Z,99.90
2023-04-26T23:17:03.044Z,99.90
2023-04-26T23:19:29.733Z,99.90
2023-04-26T23:21:56.471Z,99.90
2023-04-26T23:24:23.120Z,99.90
2023-04-26T23:26:49.683Z,99.90
2023-04-26T23:29:16.847Z,99.90
2023-04-26T23:31:43.803Z,99.90
2023-04-26T23:34:10.630Z,99.90
2023-04-26T23:36:37.403Z,99.90
2023-04-26T23:39:04.149Z,99.90
2023-04-26T23:41:31.076Z,99.90
2023-04-26T23:43:57.757Z,99.90
2023-04-26T23:46:24.453Z,99.90
2023-04-26T23:48:51.179Z,99.90
2023-04-26T23:51:17.857Z,99.90
2023-04-26T23:53:44.943Z,99.90
2023-04-26T23:56:11.681Z,99.90
2023-04-26T23:58:38.293Z,99.90
